This is the latest recevied weather packets stored in our database for station/object RN1M-13. If no packets are shown the sender has not sent any weather packets the latest 10 day(s).
| Time | Temp. | Humidity | Pressure | Rain* | Wind** | Luminosity | Snow |
|---|---|---|---|---|---|---|---|
| 1777728742 | 16.67° C | 100% | 1008.7 hPa | - | - | - | - |
| 1777727842 | 16.67° C | 100% | 1008.8 hPa | - | - | - | - |
| 1777726942 | 17.78° C | 100% | 1008.8 hPa | - | - | - | - |
| 1777724241 | 14.44° C | 100% | 1009.2 hPa | - | - | - | - |
| 1777723341 | 13.33° C | 100% | 1009.3 hPa | - | - | - | - |
| 1777722443 | 15° C | 100% | 1009.3 hPa | - | - | - | - |
| 1777721541 | 14.44° C | 100% | 1009.5 hPa | - | - | - | - |
| 1777720641 | 14.44° C | 100% | 1009.5 hPa | - | - | - | - |
| 1777719743 | 18.33° C | 89% | 1009.1 hPa | - | - | - | - |
| 1777718851 | 18.33° C | 88% | 1009.2 hPa | - | - | - | - |
| 1777717950 | 18.33° C | 84% | 1009.3 hPa | - | - | - | - |
| 1777717050 | 19.44° C | 71% | 1009.3 hPa | - | - | - | - |
| 1777716150 | 19.44° C | 65% | 1009.4 hPa | - | - | - | - |
| 1777715250 | 20° C | 62% | 1009.5 hPa | - | - | - | - |
| 1777714350 | 20° C | 57% | 1009.4 hPa | - | - | - | - |
| 1777713450 | 20.56° C | 55% | 1009.5 hPa | - | - | - | - |
| 1777712550 | 18.89° C | 62% | 1009.8 hPa | - | - | - | - |
| 1777711650 | 19.44° C | 60% | 1010 hPa | - | - | - | - |
| 1777710750 | 21.67° C | 49% | 1009.9 hPa | - | - | - | - |
| 1777709850 | 21.11° C | 57% | 1010.1 hPa | - | - | - | - |
| 1777708952 | 18.89° C | 82% | 1010.4 hPa | - | - | - | - |
| 1777708057 | 18.33° C | 98% | 1010.6 hPa | - | - | - | - |
| 1777707157 | 17.22° C | 100% | 1010.9 hPa | - | - | - | - |
| 1777706257 | 18.33° C | 100% | 1010.8 hPa | - | - | - | - |
| 1777705357 | 16.11° C | 100% | 1011 hPa | - | - | - | - |
* Rain since midnight (hover to see other rain measurements)
** Current wind speed in m/s (hover to see current wind gust speed)